sensor_id;sensor_type;location;lat;lon;timestamp;P1;P2;P0
84927;PMS7003;75189;50.640;19.242;2024-03-08T00:01:42;15;8;5
84927;PMS7003;75189;50.640;19.242;2024-03-08T00:07:51;9;6;5
84927;PMS7003;75189;50.640;19.242;2024-03-08T00:13:58;11;8;5
84927;PMS7003;75189;50.640;19.242;2024-03-08T00:20:05;8;7;3
84927;PMS7003;75189;50.640;19.242;2024-03-08T00:26:26;5;4;2
84927;PMS7003;75189;50.640;19.242;2024-03-08T00:32:36;7;6;3
84927;PMS7003;75189;50.640;19.242;2024-03-08T00:38:43;9;4;2
84927;PMS7003;75189;50.640;19.242;2024-03-08T00:44:50;10;5;4
84927;PMS7003;75189;50.640;19.242;2024-03-08T00:50:57;6;3;3
84927;PMS7003;75189;50.640;19.242;2024-03-08T00:57:04;8;5;2
84927;PMS7003;75189;50.640;19.242;2024-03-08T01:03:12;10;8;5
84927;PMS7003;75189;50.640;19.242;2024-03-08T01:09:19;5;2;2
84927;PMS7003;75189;50.640;19.242;2024-03-08T01:15:43;8;4;1
84927;PMS7003;75189;50.640;19.242;2024-03-08T01:21:51;4;3;2
84927;PMS7003;75189;50.640;19.242;2024-03-08T01:27:58;7;4;4
84927;PMS7003;75189;50.640;19.242;2024-03-08T01:34:05;9;6;4
84927;PMS7003;75189;50.640;19.242;2024-03-08T01:40:12;8;5;3
84927;PMS7003;75189;50.640;19.242;2024-03-08T01:46:19;12;6;4
84927;PMS7003;75189;50.640;19.242;2024-03-08T01:52:31;10;7;4
84927;PMS7003;75189;50.640;19.242;2024-03-08T01:58:40;7;6;4
84927;PMS7003;75189;50.640;19.242;2024-03-08T02:11:15;8;6;4
84927;PMS7003;75189;50.640;19.242;2024-03-08T02:17:22;13;9;5
84927;PMS7003;75189;50.640;19.242;2024-03-08T02:23:29;6;4;2
84927;PMS7003;75189;50.640;19.242;2024-03-08T02:29:36;9;7;5
84927;PMS7003;75189;50.640;19.242;2024-03-08T02:35:43;8;5;3
84927;PMS7003;75189;50.640;19.242;2024-03-08T02:41:54;12;8;4
84927;PMS7003;75189;50.640;19.242;2024-03-08T02:48:01;9;5;4
84927;PMS7003;75189;50.640;19.242;2024-03-08T02:54:18;6;4;3
84927;PMS7003;75189;50.640;19.242;2024-03-08T03:00:27;8;5;4
84927;PMS7003;75189;50.640;19.242;2024-03-08T03:06:34;8;6;4
84927;PMS7003;75189;50.640;19.242;2024-03-08T03:12:41;6;4;2
84927;PMS7003;75189;50.640;19.242;2024-03-08T03:18:48;6;3;2
84927;PMS7003;75189;50.640;19.242;2024-03-08T03:24:55;5;4;4
84927;PMS7003;75189;50.640;19.242;2024-03-08T03:31:06;7;4;2
84927;PMS7003;75189;50.640;19.242;2024-03-08T03:37:14;7;6;3
84927;PMS7003;75189;50.640;19.242;2024-03-08T03:43:36;8;5;3
84927;PMS7003;75189;50.640;19.242;2024-03-08T03:49:46;5;4;2
84927;PMS7003;75189;50.640;19.242;2024-03-08T03:55:53;5;4;3
84927;PMS7003;75189;50.640;19.242;2024-03-08T04:02:00;8;5;4
84927;PMS7003;75189;50.640;19.242;2024-03-08T04:08:07;4;4;2
84927;PMS7003;75189;50.640;19.242;2024-03-08T04:14:14;6;4;3
84927;PMS7003;75189;50.640;19.242;2024-03-08T04:20:21;7;4;2
84927;PMS7003;75189;50.640;19.242;2024-03-08T04:26:28;7;6;2
84927;PMS7003;75189;50.640;19.242;2024-03-08T04:32:53;10;8;5
84927;PMS7003;75189;50.640;19.242;2024-03-08T04:39:00;17;10;6
84927;PMS7003;75189;50.640;19.242;2024-03-08T04:45:09;6;4;3
84927;PMS7003;75189;50.640;19.242;2024-03-08T04:51:20;12;6;5
84927;PMS7003;75189;50.640;19.242;2024-03-08T04:57:27;12;9;5
84927;PMS7003;75189;50.640;19.242;2024-03-08T05:03:34;19;12;8
84927;PMS7003;75189;50.640;19.242;2024-03-08T05:09:41;12;8;5
84927;PMS7003;75189;50.640;19.242;2024-03-08T05:15:48;13;10;5
84927;PMS7003;75189;50.640;19.242;2024-03-08T05:22:10;11;8;4
84927;PMS7003;75189;50.640;19.242;2024-03-08T05:28:17;11;7;5
84927;PMS7003;75189;50.640;19.242;2024-03-08T05:34:24;7;5;3
84927;PMS7003;75189;50.640;19.242;2024-03-08T05:40:32;6;6;4
84927;PMS7003;75189;50.640;19.242;2024-03-08T05:46:39;9;6;4
84927;PMS7003;75189;50.640;19.242;2024-03-08T05:52:46;10;6;4
84927;PMS7003;75189;50.640;19.242;2024-03-08T05:58:56;10;5;4
84927;PMS7003;75189;50.640;19.242;2024-03-08T06:05:04;11;5;2
84927;PMS7003;75189;50.640;19.242;2024-03-08T06:11:27;10;7;4
84927;PMS7003;75189;50.640;19.242;2024-03-08T06:17:38;6;4;3
84927;PMS7003;75189;50.640;19.242;2024-03-08T06:23:45;12;7;6
84927;PMS7003;75189;50.640;19.242;2024-03-08T06:29:52;13;9;6
84927;PMS7003;75189;50.640;19.242;2024-03-08T06:35:59;8;7;5
84927;PMS7003;75189;50.640;19.242;2024-03-08T06:42:06;12;9;5
84927;PMS7003;75189;50.640;19.242;2024-03-08T06:48:16;15;10;8
84927;PMS7003;75189;50.640;19.242;2024-03-08T06:54:23;13;7;5
84927;PMS7003;75189;50.640;19.242;2024-03-08T07:00:45;21;13;9
84927;PMS7003;75189;50.640;19.242;2024-03-08T07:06:53;19;12;7
84927;PMS7003;75189;50.640;19.242;2024-03-08T07:13:00;16;11;6
84927;PMS7003;75189;50.640;19.242;2024-03-08T07:19:10;14;8;2
84927;PMS7003;75189;50.640;19.242;2024-03-08T07:25:18;19;14;8
84927;PMS7003;75189;50.640;19.242;2024-03-08T07:31:28;14;9;6
84927;PMS7003;75189;50.640;19.242;2024-03-08T07:37:49;18;14;9
84927;PMS7003;75189;50.640;19.242;2024-03-08T07:43:56;14;9;6
84927;PMS7003;75189;50.640;19.242;2024-03-08T07:50:03;13;9;7
84927;PMS7003;75189;50.640;19.242;2024-03-08T07:56:11;15;10;7
84927;PMS7003;75189;50.640;19.242;2024-03-08T08:02:22;16;13;8
84927;PMS7003;75189;50.640;19.242;2024-03-08T08:08:29;13;9;6
84927;PMS7003;75189;50.640;19.242;2024-03-08T08:14:36;13;10;7
84927;PMS7003;75189;50.640;19.242;2024-03-08T08:20:43;15;10;8
84927;PMS7003;75189;50.640;19.242;2024-03-08T08:26:50;19;11;6
84927;PMS7003;75189;50.640;19.242;2024-03-08T08:32:57;22;16;10
84927;PMS7003;75189;50.640;19.242;2024-03-08T08:39:19;22;13;7
84927;PMS7003;75189;50.640;19.242;2024-03-08T08:45:29;15;13;8
84927;PMS7003;75189;50.640;19.242;2024-03-08T08:51:37;17;10;6
84927;PMS7003;75189;50.640;19.242;2024-03-08T08:57:45;19;13;9
84927;PMS7003;75189;50.640;19.242;2024-03-08T09:03:52;16;11;7
84927;PMS7003;75189;50.640;19.242;2024-03-08T09:10:00;16;14;8
84927;PMS7003;75189;50.640;19.242;2024-03-08T09:16:07;12;10;7
84927;PMS7003;75189;50.640;19.242;2024-03-08T09:22:16;27;16;11
84927;PMS7003;75189;50.640;19.242;2024-03-08T09:28:36;16;13;8
84927;PMS7003;75189;50.640;19.242;2024-03-08T09:34:45;17;13;6
84927;PMS7003;75189;50.640;19.242;2024-03-08T09:40:52;23;14;8
84927;PMS7003;75189;50.640;19.242;2024-03-08T09:46:59;20;17;11
84927;PMS7003;75189;50.640;19.242;2024-03-08T09:53:08;14;11;7
84927;PMS7003;75189;50.640;19.242;2024-03-08T09:59:16;23;17;10
84927;PMS7003;75189;50.640;19.242;2024-03-08T10:05:34;10;8;6
84927;PMS7003;75189;50.640;19.242;2024-03-08T10:11:41;13;11;7
84927;PMS7003;75189;50.640;19.242;2024-03-08T10:17:55;19;13;8
84927;PMS7003;75189;50.640;19.242;2024-03-08T10:24:05;24;14;8
84927;PMS7003;75189;50.640;19.242;2024-03-08T10:30:15;15;10;6
84927;PMS7003;75189;50.640;19.242;2024-03-08T10:36:27;13;11;8
84927;PMS7003;75189;50.640;19.242;2024-03-08T10:42:35;21;15;9
84927;PMS7003;75189;50.640;19.242;2024-03-08T10:48:51;20;13;9
84927;PMS7003;75189;50.640;19.242;2024-03-08T10:55:03;15;13;9
84927;PMS7003;75189;50.640;19.242;2024-03-08T11:01:42;18;13;8
84927;PMS7003;75189;50.640;19.242;2024-03-08T11:07:49;17;13;9
84927;PMS7003;75189;50.640;19.242;2024-03-08T11:13:58;18;13;7
84927;PMS7003;75189;50.640;19.242;2024-03-08T11:26:23;18;14;9
84927;PMS7003;75189;50.640;19.242;2024-03-08T11:32:31;15;12;7
84927;PMS7003;75189;50.640;19.242;2024-03-08T11:38:42;12;11;7
84927;PMS7003;75189;50.640;19.242;2024-03-08T11:44:56;12;8;4
84927;PMS7003;75189;50.640;19.242;2024-03-08T11:51:04;14;9;6
84927;PMS7003;75189;50.640;19.242;2024-03-08T11:57:12;17;11;7
84927;PMS7003;75189;50.640;19.242;2024-03-08T12:03:20;17;13;9
84927;PMS7003;75189;50.640;19.242;2024-03-08T12:09:27;12;10;7
84927;PMS7003;75189;50.640;19.242;2024-03-08T12:15:37;19;9;6
84927;PMS7003;75189;50.640;19.242;2024-03-08T12:21:44;15;12;7
84927;PMS7003;75189;50.640;19.242;2024-03-08T12:27:54;16;9;4
84927;PMS7003;75189;50.640;19.242;2024-03-08T12:34:03;17;11;7
84927;PMS7003;75189;50.640;19.242;2024-03-08T12:40:19;19;12;8
84927;PMS7003;75189;50.640;19.242;2024-03-08T12:46:48;15;11;6
84927;PMS7003;75189;50.640;19.242;2024-03-08T12:52:58;16;12;8
84927;PMS7003;75189;50.640;19.242;2024-03-08T12:59:06;13;9;6
84927;PMS7003;75189;50.640;19.242;2024-03-08T13:05:16;20;16;10
84927;PMS7003;75189;50.640;19.242;2024-03-08T13:11:23;12;9;6
84927;PMS7003;75189;50.640;19.242;2024-03-08T13:17:30;7;4;2
84927;PMS7003;75189;50.640;19.242;2024-03-08T13:23:37;17;13;8
84927;PMS7003;75189;50.640;19.242;2024-03-08T13:29:47;10;8;5
84927;PMS7003;75189;50.640;19.242;2024-03-08T13:35:55;21;15;9
84927;PMS7003;75189;50.640;19.242;2024-03-08T13:42:04;18;9;4
84927;PMS7003;75189;50.640;19.242;2024-03-08T13:48:19;11;10;6
84927;PMS7003;75189;50.640;19.242;2024-03-08T13:54:27;22;15;9
84927;PMS7003;75189;50.640;19.242;2024-03-08T14:00:37;17;11;7
84927;PMS7003;75189;50.640;19.242;2024-03-08T14:06:47;23;18;12
84927;PMS7003;75189;50.640;19.242;2024-03-08T14:12:55;21;14;9
84927;PMS7003;75189;50.640;19.242;2024-03-08T14:19:03;10;8;6
84927;PMS7003;75189;50.640;19.242;2024-03-08T14:25:12;16;13;6
84927;PMS7003;75189;50.640;19.242;2024-03-08T14:31:23;18;12;7
84927;PMS7003;75189;50.640;19.242;2024-03-08T14:37:36;15;13;8
84927;PMS7003;75189;50.640;19.242;2024-03-08T14:53:35;13;8;6
84927;PMS7003;75189;50.640;19.242;2024-03-08T14:59:42;19;11;5
84927;PMS7003;75189;50.640;19.242;2024-03-08T15:05:51;14;12;7
84927;PMS7003;75189;50.640;19.242;2024-03-08T15:12:00;20;12;7
84927;PMS7003;75189;50.640;19.242;2024-03-08T15:18:07;14;12;8
84927;PMS7003;75189;50.640;19.242;2024-03-08T15:24:14;21;14;8
84927;PMS7003;75189;50.640;19.242;2024-03-08T15:30:28;10;6;3
84927;PMS7003;75189;50.640;19.242;2024-03-08T15:36:37;9;7;4
84927;PMS7003;75189;50.640;19.242;2024-03-08T15:42:55;7;3;2
84927;PMS7003;75189;50.640;19.242;2024-03-08T15:49:03;12;7;4
84927;PMS7003;75189;50.640;19.242;2024-03-08T15:55:14;9;6;3
84927;PMS7003;75189;50.640;19.242;2024-03-08T16:01:27;5;3;1
84927;PMS7003;75189;50.640;19.242;2024-03-08T16:07:34;4;3;2
84927;PMS7003;75189;50.640;19.242;2024-03-08T16:13:41;2;1;1
84927;PMS7003;75189;50.640;19.242;2024-03-08T16:19:48;6;4;3
84927;PMS7003;75189;50.640;19.242;2024-03-08T16:25:55;8;3;1
84927;PMS7003;75189;50.640;19.242;2024-03-08T16:32:02;5;2;1
84927;PMS7003;75189;50.640;19.242;2024-03-08T16:38:09;6;5;2
84927;PMS7003;75189;50.640;19.242;2024-03-08T16:44:20;5;4;2
84927;PMS7003;75189;50.640;19.242;2024-03-08T16:50:31;6;3;2
84927;PMS7003;75189;50.640;19.242;2024-03-08T16:56:38;4;3;1
84927;PMS7003;75189;50.640;19.242;2024-03-08T17:02:49;6;2;2
84927;PMS7003;75189;50.640;19.242;2024-03-08T17:09:02;7;4;2
84927;PMS7003;75189;50.640;19.242;2024-03-08T17:15:18;6;6;3
84927;PMS7003;75189;50.640;19.242;2024-03-08T17:21:29;8;5;3
84927;PMS7003;75189;50.640;19.242;2024-03-08T17:27:36;6;3;2
84927;PMS7003;75189;50.640;19.242;2024-03-08T17:33:43;8;5;3
84927;PMS7003;75189;50.640;19.242;2024-03-08T17:39:51;8;3;2
84927;PMS7003;75189;50.640;19.242;2024-03-08T17:46:01;8;4;3
84927;PMS7003;75189;50.640;19.242;2024-03-08T17:52:10;8;7;3
84927;PMS7003;75189;50.640;19.242;2024-03-08T17:58:19;5;4;2
84927;PMS7003;75189;50.640;19.242;2024-03-08T18:04:26;7;5;3
84927;PMS7003;75189;50.640;19.242;2024-03-08T18:10:33;7;6;4
84927;PMS7003;75189;50.640;19.242;2024-03-08T18:16:41;8;6;4
84927;PMS7003;75189;50.640;19.242;2024-03-08T18:22:51;10;4;3
84927;PMS7003;75189;50.640;19.242;2024-03-08T18:29:02;11;7;4
84927;PMS7003;75189;50.640;19.242;2024-03-08T18:35:11;9;6;4
84927;PMS7003;75189;50.640;19.242;2024-03-08T18:41:18;12;9;5
84927;PMS7003;75189;50.640;19.242;2024-03-08T18:47:39;12;11;7
84927;PMS7003;75189;50.640;19.242;2024-03-08T18:53:47;24;14;9
84927;PMS7003;75189;50.640;19.242;2024-03-08T18:59:59;14;10;7
84927;PMS7003;75189;50.640;19.242;2024-03-08T19:06:06;19;16;8
84927;PMS7003;75189;50.640;19.242;2024-03-08T19:12:16;16;11;7
84927;PMS7003;75189;50.640;19.242;2024-03-08T19:18:25;19;13;7
84927;PMS7003;75189;50.640;19.242;2024-03-08T19:24:35;23;16;10
84927;PMS7003;75189;50.640;19.242;2024-03-08T19:30:42;18;12;7
84927;PMS7003;75189;50.640;19.242;2024-03-08T19:36:53;16;13;8
84927;PMS7003;75189;50.640;19.242;2024-03-08T19:43:01;22;15;9
84927;PMS7003;75189;50.640;19.242;2024-03-08T19:49:16;20;12;6
84927;PMS7003;75189;50.640;19.242;2024-03-08T19:55:22;19;16;7
84927;PMS7003;75189;50.640;19.242;2024-03-08T20:01:30;23;17;10
84927;PMS7003;75189;50.640;19.242;2024-03-08T20:07:37;16;13;9
84927;PMS7003;75189;50.640;19.242;2024-03-08T20:13:44;18;16;10
84927;PMS7003;75189;50.640;19.242;2024-03-08T20:19:53;20;14;8
84927;PMS7003;75189;50.640;19.242;2024-03-08T20:26:11;22;16;11
84927;PMS7003;75189;50.640;19.242;2024-03-08T20:32:20;26;17;10
84927;PMS7003;75189;50.640;19.242;2024-03-08T20:38:28;19;14;9
84927;PMS7003;75189;50.640;19.242;2024-03-08T20:44:35;26;22;14
84927;PMS7003;75189;50.640;19.242;2024-03-08T20:50:43;27;23;13
84927;PMS7003;75189;50.640;19.242;2024-03-08T20:56:49;21;20;14
84927;PMS7003;75189;50.640;19.242;2024-03-08T21:02:59;18;15;9
84927;PMS7003;75189;50.640;19.242;2024-03-08T21:09:08;27;23;14
84927;PMS7003;75189;50.640;19.242;2024-03-08T21:15:28;18;17;12
84927;PMS7003;75189;50.640;19.242;2024-03-08T21:21:35;24;20;12
84927;PMS7003;75189;50.640;19.242;2024-03-08T21:27:43;28;21;12
84927;PMS7003;75189;50.640;19.242;2024-03-08T21:33:50;30;19;11
84927;PMS7003;75189;50.640;19.242;2024-03-08T21:39:58;28;22;13
84927;PMS7003;75189;50.640;19.242;2024-03-08T21:46:05;34;24;14
84927;PMS7003;75189;50.640;19.242;2024-03-08T21:52:14;31;24;15
84927;PMS7003;75189;50.640;19.242;2024-03-08T21:58:21;39;26;16
84927;PMS7003;75189;50.640;19.242;2024-03-08T22:04:46;41;29;17
84927;PMS7003;75189;50.640;19.242;2024-03-08T22:10:53;28;16;11
84927;PMS7003;75189;50.640;19.242;2024-03-08T22:17:03;28;21;12
84927;PMS7003;75189;50.640;19.242;2024-03-08T22:23:15;36;24;14
84927;PMS7003;75189;50.640;19.242;2024-03-08T22:29:28;23;21;15
84927;PMS7003;75189;50.640;19.242;2024-03-08T22:35:36;31;25;16
84927;PMS7003;75189;50.640;19.242;2024-03-08T22:41:42;28;20;13
84927;PMS7003;75189;50.640;19.242;2024-03-08T22:47:49;31;23;14
84927;PMS7003;75189;50.640;19.242;2024-03-08T22:54:03;36;25;14
84927;PMS7003;75189;50.640;19.242;2024-03-08T23:00:11;46;35;21
84927;PMS7003;75189;50.640;19.242;2024-03-08T23:06:28;39;27;16
84927;PMS7003;75189;50.640;19.242;2024-03-08T23:12:34;29;21;13
84927;PMS7003;75189;50.640;19.242;2024-03-08T23:18:42;36;28;17
84927;PMS7003;75189;50.640;19.242;2024-03-08T23:24:49;27;21;13
84927;PMS7003;75189;50.640;19.242;2024-03-08T23:30:57;42;25;15
84927;PMS7003;75189;50.640;19.242;2024-03-08T23:37:03;23;18;12
84927;PMS7003;75189;50.640;19.242;2024-03-08T23:43:21;40;27;13
84927;PMS7003;75189;50.640;19.242;2024-03-08T23:49:27;34;23;17
84927;PMS7003;75189;50.640;19.242;2024-03-08T23:55:35;23;17;12
